Česky Dansk Deutsch English Español Suomi Français Magyar Italiano Nederlands norsk Polski Português svenska Türkçe

 

Het Weer

Ben-Gurion International Airport (Israel)

02:50, 21 augustus 2016 (GMT)

NWNNE
WE
SWSSE
Home            
Ben-Gurion International Airport Tel Aviv / Sde-Dov Airport Jerusalem Airport Beer-Sheva Sde-Haifa Haifa Amman Airport Queen Alia Airport Irbid Galilee / Pina Mafraq El Arish Beyrouth Aeroport H-5'Safawi Damascus Int. Airport Ma'An Ovda Guriat Port Said Aqaba Airport Taba Eilat H-4'Irwaished Akrotiri

Om een weerknop op uw website of weblog te plaatsen, copieer onderstaande code en plak die in uw pagina. In het eerste vakje staat HTML-code, in het tweede vakje UBB-code.


Add to Google

Details

Wind speed:1 bf, 1 kn, 0.5 m/s, 1.2 miles/h, 1.9 km/h
Wind direction:Variable
Visibility:Greater than 10000 m, 10 km, 32800 ft, 6.2 miles
Clouds:CAVOC
Temperature:25°C, 77°F
Gefühlte Temperatur:26°C, 79°F
Dew-point:20°C, 68°F
Atmospheric pressure:1009 hPa, 756.8 mmHg, 29.80 inHg, 0.996 atm
Relative humidity:73.8 %
METAR:LLBG 210250Z VRB01KT CAVOK 25/20 Q1009 NOSIG

Snelkoppelingen

Actuele weersinformatie van de hele wereld. Voeg locaties toe met het plus (+) symbool. Deze snelkoppelingen kunnen worden toegevoegd aan Google.

Lid van de Technetium groep

website free tracking
StatCounter NetStat W3C Validator

17-12-2017 04:47:15
astro.technetium.be money.technetium.be phote.technetium.be tafeltennistafel.technetium.be www.ligfiets.net